Time;durP1;ratioP1;P1;durP2;ratioP2;P2;SDS_P1;SDS_P2;PMS_P1;PMS_P2;Temp;Humidity;BMP_temperature;BMP_pressure;BME280_temperature;BME280_humidity;BME280_pressure;Samples;Min_cycle;Max_cycle;Signal;HPM_P1;HPM_P2
2024/01/30 00:00:36;;;;;;;4.80;4.20;;;;;;;2.65;58.86;102575.50;5018188;27;108914;-49
2024/01/30 00:03:01;;;;;;;6.07;4.20;;;;;;;2.64;58.89;102578.66;5018530;27;97111;-49
2024/01/30 00:05:27;;;;;;;7.00;3.73;;;;;;;2.63;58.77;102571.63;5017465;27;97231;-50
2024/01/30 00:07:52;;;;;;;4.40;4.00;;;;;;;2.64;58.85;102573.19;5014043;27;96950;-49
2024/01/30 00:10:17;;;;;;;5.37;4.33;;;;;;;2.65;58.75;102574.72;5016704;27;97279;-50
2024/01/30 00:12:43;;;;;;;5.07;4.20;;;;;;;2.63;58.91;102569.66;5015940;27;96847;-49
2024/01/30 00:15:09;;;;;;;5.37;3.93;;;;;;;2.62;59.17;102570.84;5012121;27;96794;-49
2024/01/30 00:17:36;;;;;;;5.10;4.30;;;;;;;2.62;59.06;102570.06;5018228;27;96810;-49
2024/01/30 00:20:05;;;;;;;6.13;4.43;;;;;;;2.62;58.92;102575.53;5016464;27;97888;-49
2024/01/30 00:22:30;;;;;;;3.93;3.30;;;;;;;2.62;58.92;102576.31;5015356;27;97167;-50
2024/01/30 00:24:56;;;;;;;5.50;3.90;;;;;;;2.60;59.05;102570.50;5019170;27;97288;-49
2024/01/30 00:27:21;;;;;;;6.33;4.00;;;;;;;2.59;58.65;102568.19;5016664;27;100010;-49
2024/01/30 00:29:46;;;;;;;5.30;4.27;;;;;;;2.59;58.81;102560.75;5019462;27;102815;-49
2024/01/30 00:32:12;;;;;;;4.50;3.90;;;;;;;2.57;59.16;102562.34;5018458;27;97269;-49
2024/01/30 00:34:37;;;;;;;6.30;4.30;;;;;;;2.55;58.70;102566.25;5021303;27;97028;-49
2024/01/30 00:37:02;;;;;;;4.90;3.87;;;;;;;2.54;59.15;102556.53;5017657;27;97505;-49
2024/01/30 00:39:28;;;;;;;7.23;4.57;;;;;;;2.53;58.89;102556.94;5019075;27;98488;-49
2024/01/30 00:41:53;;;;;;;5.47;3.87;;;;;;;2.48;59.07;102549.97;5019661;27;97262;-49
2024/01/30 00:44:18;;;;;;;6.77;4.37;;;;;;;2.45;59.05;102553.56;5022633;27;97101;-49
2024/01/30 00:46:44;;;;;;;5.27;4.27;;;;;;;2.41;58.81;102552.84;5017723;27;97125;-49
2024/01/30 00:49:10;;;;;;;4.93;3.97;;;;;;;2.41;59.11;102563.75;5019956;27;97516;-49
2024/01/30 00:51:36;;;;;;;5.20;4.27;;;;;;;2.41;59.16;102560.25;5019596;27;97081;-49
2024/01/30 00:54:02;;;;;;;5.43;4.80;;;;;;;2.40;59.25;102558.69;5020963;27;96728;-49
2024/01/30 00:56:28;;;;;;;5.90;4.10;;;;;;;2.39;59.06;102559.91;5018929;27;96917;-49
2024/01/30 00:58:53;;;;;;;5.17;4.40;;;;;;;2.37;59.19;102565.78;5019826;27;97452;-49
2024/01/30 01:01:19;;;;;;;4.60;4.20;;;;;;;2.40;59.27;102567.66;5019081;27;98583;-49
2024/01/30 01:03:44;;;;;;;3.90;3.60;;;;;;;2.39;59.33;102559.91;5020332;27;97128;-49
2024/01/30 01:06:10;;;;;;;7.17;4.50;;;;;;;2.41;59.21;102562.97;5020177;27;97263;-49
2024/01/30 01:08:35;;;;;;;4.40;4.00;;;;;;;2.41;59.34;102563.75;5017171;27;98596;-49
2024/01/30 01:11:01;;;;;;;5.10;4.57;;;;;;;2.40;59.46;102567.66;5020385;27;97077;-49
2024/01/30 01:13:26;;;;;;;9.93;4.00;;;;;;;2.40;59.30;102564.16;5019932;27;96716;-49
2024/01/30 01:15:51;;;;;;;5.60;4.37;;;;;;;2.40;59.26;102558.69;5020444;27;101273;-50
2024/01/30 01:18:17;;;;;;;6.33;4.30;;;;;;;2.42;59.25;102572.72;5018849;27;98529;-49
2024/01/30 01:20:42;;;;;;;4.23;3.83;;;;;;;2.41;59.57;102565.72;5018264;27;100007;-50
2024/01/30 01:23:07;;;;;;;3.93;3.63;;;;;;;2.43;59.16;102563.34;5018637;27;99445;-49
2024/01/30 01:25:33;;;;;;;5.73;4.20;;;;;;;2.40;59.44;102562.22;5021181;27;96787;-50
2024/01/30 01:27:58;;;;;;;4.47;4.00;;;;;;;2.44;59.65;102564.91;5017768;27;97285;-49
2024/01/30 01:30:25;;;;;;;4.47;3.77;;;;;;;2.44;59.60;102552.00;5019985;27;97089;-49
2024/01/30 01:32:54;;;;;;;5.20;4.30;;;;;;;2.46;59.62;102555.09;5016254;27;96723;-49
2024/01/30 01:35:23;;;;;;;4.90;3.77;;;;;;;2.48;59.52;102552.72;5019646;27;97155;-50
2024/01/30 01:37:54;;;;;;;5.27;3.90;;;;;;;2.49;59.54;102553.47;5017756;27;98767;-50
2024/01/30 01:40:23;;;;;;;7.50;3.77;;;;;;;2.51;59.48;102557.34;5018033;27;97290;-50
2024/01/30 01:42:49;;;;;;;5.13;4.10;;;;;;;2.53;59.44;102554.97;5016833;27;96730;-50
2024/01/30 01:45:15;;;;;;;10.73;4.70;;;;;;;2.54;59.44;102558.50;5017439;27;96983;-50
2024/01/30 01:47:41;;;;;;;8.73;4.67;;;;;;;2.53;59.59;102549.50;5017299;27;98595;-50
2024/01/30 01:50:07;;;;;;;5.00;4.50;;;;;;;2.53;59.56;102554.97;5017038;27;97708;-49
2024/01/30 01:52:33;;;;;;;4.37;4.00;;;;;;;2.53;59.84;102548.72;5016861;27;96760;-49
2024/01/30 01:54:59;;;;;;;7.97;4.80;;;;;;;2.51;59.79;102554.63;5019844;27;96889;-50
2024/01/30 01:57:24;;;;;;;5.77;4.30;;;;;;;2.52;59.92;102550.72;5019736;27;98548;-49
2024/01/30 01:59:50;;;;;;;4.97;4.20;;;;;;;2.54;59.80;102542.09;5015265;27;97021;-50
2024/01/30 02:02:17;;;;;;;3.80;3.40;;;;;;;2.49;59.77;102553.47;5017797;27;96735;-49
2024/01/30 02:04:43;;;;;;;4.40;4.00;;;;;;;2.57;59.76;102536.56;5020433;27;96985;-50
2024/01/30 02:07:08;;;;;;;4.67;4.27;;;;;;;2.61;59.76;102543.94;5017533;27;97463;-50
2024/01/30 02:09:33;;;;;;;6.10;4.43;;;;;;;2.63;59.79;102541.56;5018883;27;97301;-49
2024/01/30 02:11:59;;;;;;;4.07;3.67;;;;;;;2.63;59.45;102536.88;5018912;27;97151;-49
2024/01/30 02:14:24;;;;;;;5.10;4.60;;;;;;;2.64;60.15;102537.66;5018501;27;98253;-49
2024/01/30 02:16:49;;;;;;;5.87;4.40;;;;;;;2.66;59.70;102535.28;5016016;27;107202;-49
2024/01/30 02:19:15;;;;;;;6.33;4.50;;;;;;;2.67;59.93;102520.41;5019261;27;97360;-49
2024/01/30 02:21:40;;;;;;;6.43;4.53;;;;;;;2.67;59.74;102518.47;5016984;27;97447;-50
2024/01/30 02:24:06;;;;;;;5.00;4.37;;;;;;;2.69;59.53;102512.56;5018952;27;97758;-49
2024/01/30 02:26:31;;;;;;;7.03;4.20;;;;;;;2.70;59.98;102509.44;5016120;27;97102;-49
2024/01/30 02:28:56;;;;;;;5.67;3.90;;;;;;;2.74;59.78;102509.38;5019785;27;96704;-49
2024/01/30 02:31:21;;;;;;;5.27;4.07;;;;;;;2.74;59.84;102506.63;5016806;27;103182;-49
2024/01/30 02:33:47;;;;;;;4.73;4.20;;;;;;;2.72;60.13;102504.31;5016148;27;96811;-50
2024/01/30 02:36:12;;;;;;;7.63;4.70;;;;;;;2.74;60.28;102498.44;5017645;27;97749;-49
2024/01/30 02:38:37;;;;;;;4.43;4.03;;;;;;;2.76;60.05;102493.31;5015305;27;103448;-49
2024/01/30 02:41:03;;;;;;;4.97;4.20;;;;;;;2.79;60.12;102501.44;5021111;27;96606;-50
2024/01/30 02:43:28;;;;;;;5.37;4.57;;;;;;;2.79;60.01;102495.97;5019867;27;97119;-49
2024/01/30 02:45:53;;;;;;;5.50;4.00;;;;;;;2.82;60.05;102491.66;5015241;27;104339;-49
2024/01/30 02:48:18;;;;;;;5.27;4.77;;;;;;;2.84;60.09;102494.72;5015445;27;107012;-49
2024/01/30 02:50:44;;;;;;;5.23;4.70;;;;;;;2.86;60.16;102495.09;5017749;27;96994;-50
2024/01/30 02:53:09;;;;;;;5.00;4.30;;;;;;;2.89;60.32;102495.03;5016289;27;96663;-50
2024/01/30 02:55:35;;;;;;;5.50;4.13;;;;;;;2.91;59.87;102491.88;5018376;27;97355;-50
2024/01/30 02:58:00;;;;;;;7.23;5.07;;;;;;;2.91;60.16;102491.88;5016925;27;97133;-49
2024/01/30 03:00:25;;;;;;;5.10;4.50;;;;;;;2.91;60.10;102487.19;5020361;27;97285;-50
2024/01/30 03:02:51;;;;;;;5.03;4.53;;;;;;;2.93;60.31;102478.56;5017908;27;97459;-50
2024/01/30 03:05:16;;;;;;;6.10;4.10;;;;;;;2.95;60.12;102476.19;5018944;27;106261;-49
2024/01/30 03:07:41;;;;;;;3.87;3.57;;;;;;;2.96;59.94;102466.78;5017052;27;98283;-49
2024/01/30 03:10:07;;;;;;;7.17;4.57;;;;;;;3.00;60.30;102472.97;5016026;27;97140;-50
2024/01/30 03:12:33;;;;;;;5.93;4.93;;;;;;;2.99;60.28;102476.88;5014848;27;96945;-49
2024/01/30 03:14:58;;;;;;;5.70;4.40;;;;;;;2.98;60.35;102476.13;5018436;27;96762;-50
2024/01/30 03:17:24;;;;;;;4.70;4.20;;;;;;;2.99;60.31;102474.91;5015922;27;96782;-49
2024/01/30 03:19:50;;;;;;;5.30;4.47;;;;;;;2.98;60.32;102475.34;5019685;27;96786;-49
2024/01/30 03:22:15;;;;;;;5.80;4.57;;;;;;;2.97;60.56;102473.78;5014479;27;96802;-50
2024/01/30 03:24:40;;;;;;;7.33;4.70;;;;;;;2.96;60.31;102473.03;5013526;27;98195;-50
2024/01/30 03:27:05;;;;;;;5.63;4.20;;;;;;;2.95;60.08;102467.97;5014861;27;97153;-49
2024/01/30 03:29:31;;;;;;;7.00;5.63;;;;;;;2.95;60.35;102473.44;5016403;27;97053;-49
2024/01/30 03:31:56;;;;;;;8.43;5.00;;;;;;;2.94;60.11;102471.91;5013789;27;97117;-50
2024/01/30 03:34:21;;;;;;;4.90;3.93;;;;;;;2.93;60.37;102473.09;5016200;27;109317;-49
2024/01/30 03:36:47;;;;;;;4.80;4.30;;;;;;;2.90;60.00;102474.69;5015586;27;97119;-49
2024/01/30 03:39:12;;;;;;;6.87;4.90;;;;;;;2.89;60.27;102464.19;5016963;27;97323;-49
2024/01/30 03:41:37;;;;;;;5.10;4.60;;;;;;;2.86;60.05;102463.06;5014667;27;96793;-49
2024/01/30 03:44:03;;;;;;;4.77;4.23;;;;;;;2.85;60.37;102456.06;5020628;27;97311;-49
2024/01/30 03:46:28;;;;;;;5.90;4.73;;;;;;;2.84;60.14;102465.44;5021651;27;97159;-49
2024/01/30 03:48:54;;;;;;;5.73;4.93;;;;;;;2.82;60.41;102464.31;5015845;27;96681;-50
2024/01/30 03:51:19;;;;;;;6.80;5.30;;;;;;;2.80;60.55;102458.50;5016218;27;96723;-49
2024/01/30 03:53:46;;;;;;;4.70;4.17;;;;;;;2.79;60.43;102462.44;5018067;27;97875;-50
2024/01/30 03:56:13;;;;;;;8.63;4.80;;;;;;;2.78;60.39;102455.41;5013219;27;98386;-50
2024/01/30 03:58:38;;;;;;;7.37;5.27;;;;;;;2.76;60.22;102450.38;5016308;27;97002;-50
2024/01/30 04:01:04;;;;;;;6.40;4.13;;;;;;;2.74;60.46;102452.75;5015460;27;97292;-50
2024/01/30 04:03:29;;;;;;;4.73;4.13;;;;;;;2.73;60.41;102451.19;5019805;27;98651;-49
2024/01/30 04:05:54;;;;;;;4.60;4.20;;;;;;;2.73;60.53;102456.66;5018765;27;97591;-49
2024/01/30 04:08:20;;;;;;;5.30;4.50;;;;;;;2.71;60.78;102452.78;5016042;27;97307;-50
2024/01/30 04:10:46;;;;;;;5.03;4.53;;;;;;;2.69;60.42;102452.44;5019486;27;96784;-49
2024/01/30 04:13:11;;;;;;;6.23;4.80;;;;;;;2.66;60.74;102451.31;5016840;27;97209;-49
2024/01/30 04:15:37;;;;;;;6.40;5.00;;;;;;;2.65;60.55;102457.22;5018202;27;96722;-49
2024/01/30 04:18:02;;;;;;;5.57;4.83;;;;;;;2.65;60.85;102452.53;5018283;27;97125;-50
2024/01/30 04:20:29;;;;;;;6.00;4.90;;;;;;;2.62;60.75;102447.88;5019534;27;97089;-50
2024/01/30 04:22:54;;;;;;;5.40;4.63;;;;;;;2.63;60.31;102443.97;5016400;27;97587;-50
2024/01/30 04:25:19;;;;;;;5.97;5.20;;;;;;;2.62;60.50;102449.84;5018286;27;96969;-50
2024/01/30 04:27:45;;;;;;;5.73;4.90;;;;;;;2.60;60.58;102444.78;5018499;27;97256;-49
2024/01/30 04:30:10;;;;;;;6.60;4.87;;;;;;;2.59;60.81;102447.94;5017245;27;96897;-49
2024/01/30 04:32:36;;;;;;;6.13;4.70;;;;;;;2.59;60.81;102448.72;5019634;27;98483;-50
2024/01/30 04:35:03;;;;;;;6.07;5.47;;;;;;;2.61;60.81;102460.00;5020329;27;98669;-50
2024/01/30 04:37:28;;;;;;;6.10;4.80;;;;;;;2.62;60.58;102455.28;5018733;27;97291;-50
2024/01/30 04:39:53;;;;;;;5.53;4.80;;;;;;;2.58;60.89;102452.63;5020837;27;98355;-50
2024/01/30 04:42:19;;;;;;;5.73;4.80;;;;;;;2.60;61.05;102454.94;5015315;27;97311;-50
2024/01/30 04:44:45;;;;;;;5.00;4.20;;;;;;;2.57;60.88;102454.59;5020023;27;97995;-50
2024/01/30 04:47:11;;;;;;;6.07;4.77;;;;;;;2.57;60.88;102451.88;5014651;27;96726;-50
2024/01/30 04:49:39;;;;;;;7.83;4.57;;;;;;;2.55;60.86;102453.47;5017088;27;97240;-50
2024/01/30 04:52:04;;;;;;;5.47;4.90;;;;;;;2.53;60.87;102456.63;5014375;27;97424;-49
2024/01/30 04:54:29;;;;;;;6.70;5.30;;;;;;;2.57;60.98;102453.06;5015413;27;98322;-49
2024/01/30 04:56:55;;;;;;;6.90;4.77;;;;;;;2.57;60.94;102448.38;5017149;27;103825;-49
2024/01/30 04:59:20;;;;;;;6.07;5.47;;;;;;;2.55;60.82;102448.78;5015588;27;98750;-49
2024/01/30 05:01:46;;;;;;;4.70;4.30;;;;;;;2.53;60.79;102447.66;5015196;27;97668;-50
2024/01/30 05:04:11;;;;;;;5.73;4.73;;;;;;;2.49;60.77;102450.44;5019370;27;100283;-49
2024/01/30 05:06:36;;;;;;;5.33;4.83;;;;;;;2.47;60.74;102444.63;5017481;27;96947;-49
2024/01/30 05:09:04;;;;;;;7.40;5.00;;;;;;;2.47;60.74;102447.38;5023713;27;99593;-50
2024/01/30 05:11:29;;;;;;;5.53;4.40;;;;;;;2.44;60.81;102445.44;5020817;27;97646;-49
2024/01/30 05:13:54;;;;;;;5.20;4.57;;;;;;;2.43;60.95;102443.94;5025362;27;97053;-49
2024/01/30 05:16:20;;;;;;;7.83;5.33;;;;;;;2.43;61.00;102440.41;5010142;27;98266;-49
2024/01/30 05:18:45;;;;;;;8.00;4.97;;;;;;;2.42;61.06;102438.84;5012527;27;97484;-49
2024/01/30 05:21:11;;;;;;;6.43;4.83;;;;;;;2.42;60.95;102447.84;5014823;27;98500;-49
2024/01/30 05:23:36;;;;;;;5.90;4.83;;;;;;;2.42;61.24;102457.97;5016825;27;98095;-49
2024/01/30 05:26:02;;;;;;;7.07;4.90;;;;;;;2.41;60.96;102454.50;5017095;27;97081;-49
2024/01/30 05:28:28;;;;;;;6.30;4.70;;;;;;;2.39;60.93;102435.03;5014730;27;97100;-49
2024/01/30 05:30:54;;;;;;;5.60;4.73;;;;;;;2.38;60.88;102430.72;5012386;27;96761;-50
2024/01/30 05:33:19;;;;;;;7.50;5.17;;;;;;;2.38;60.86;102438.94;5017441;27;110259;-49
2024/01/30 05:35:44;;;;;;;5.70;4.90;;;;;;;2.37;60.91;102436.63;5019755;27;96664;-49
2024/01/30 05:38:11;;;;;;;12.97;5.70;;;;;;;2.34;60.99;102432.75;5015365;27;97092;-49
2024/01/30 05:40:36;;;;;;;7.23;5.53;;;;;;;2.32;61.11;102434.34;5015554;27;97045;-49
2024/01/30 05:43:02;;;;;;;6.47;4.77;;;;;;;2.31;61.08;102441.75;5014101;27;103067;-49
2024/01/30 05:45:28;;;;;;;6.23;5.33;;;;;;;2.30;60.87;102437.47;5016510;27;96686;-49
2024/01/30 05:47:53;;;;;;;5.60;5.10;;;;;;;2.32;61.27;102439.78;5016203;27;96897;-49
2024/01/30 05:50:19;;;;;;;5.70;5.10;;;;;;;2.32;60.99;102443.31;5013846;27;97388;-50
2024/01/30 05:52:44;;;;;;;6.40;5.47;;;;;;;2.32;61.32;102435.09;5016141;27;97280;-49
2024/01/30 05:55:11;;;;;;;6.60;5.33;;;;;;;2.34;61.12;102435.50;5018093;27;97071;-50
2024/01/30 05:57:37;;;;;;;7.50;5.50;;;;;;;2.34;61.10;102431.97;5018043;27;96919;-49
2024/01/30 06:00:03;;;;;;;8.73;6.13;;;;;;;2.34;61.30;102435.50;5016395;27;97390;-50
2024/01/30 06:02:29;;;;;;;7.60;6.00;;;;;;;2.35;60.95;102436.28;5014449;27;96652;-49
2024/01/30 06:04:54;;;;;;;6.47;5.67;;;;;;;2.34;61.20;102432.75;5016169;27;96724;-49
2024/01/30 06:07:19;;;;;;;7.50;6.37;;;;;;;2.34;61.02;102430.03;5015692;27;98304;-49
2024/01/30 06:09:46;;;;;;;7.00;5.60;;;;;;;2.34;61.08;102424.56;5016638;27;97694;-49
2024/01/30 06:12:12;;;;;;;9.93;5.93;;;;;;;2.32;61.18;102417.94;5014492;27;96923;-50
2024/01/30 06:14:37;;;;;;;7.50;6.33;;;;;;;2.32;61.34;102420.66;5014753;27;97400;-49
2024/01/30 06:17:03;;;;;;;5.70;5.10;;;;;;;2.32;61.26;102421.44;5016479;27;97146;-49
2024/01/30 06:19:28;;;;;;;5.70;5.20;;;;;;;2.31;61.04;102424.59;5012783;27;97138;-49
2024/01/30 06:21:53;;;;;;;8.33;5.77;;;;;;;2.28;61.25;102420.75;5017820;27;97204;-49
2024/01/30 06:24:19;;;;;;;8.37;5.80;;;;;;;2.25;61.38;102423.50;5014511;27;98674;-49
2024/01/30 06:26:44;;;;;;;6.77;5.60;;;;;;;2.25;61.46;102428.97;5016052;27;97188;-49
2024/01/30 06:29:10;;;;;;;6.40;5.47;;;;;;;2.21;61.36;102414.63;5012797;27;97039;-49
2024/01/30 06:31:41;;;;;;;7.90;5.97;;;;;;;2.21;61.29;102409.16;5019008;27;98410;-49
2024/01/30 06:34:07;;;;;;;5.90;5.03;;;;;;;2.20;61.25;102410.34;5019967;27;97152;-50
2024/01/30 06:36:32;;;;;;;7.70;5.53;;;;;;;2.19;61.70;102409.56;5016420;27;97249;-49
2024/01/30 06:38:58;;;;;;;6.83;5.50;;;;;;;2.21;61.49;102407.19;5016264;27;96740;-49
2024/01/30 06:41:23;;;;;;;7.00;6.03;;;;;;;2.22;61.32;102411.47;5016349;27;96783;-49
2024/01/30 06:43:49;;;;;;;9.10;5.93;;;;;;;2.21;61.41;102407.19;5013538;27;103484;-50
2024/01/30 06:46:15;;;;;;;6.20;5.60;;;;;;;2.22;61.52;102416.91;5015454;27;96789;-49
2024/01/30 06:48:40;;;;;;;9.43;6.47;;;;;;;2.21;61.55;102415.41;5015523;27;98096;-49
2024/01/30 06:51:06;;;;;;;7.93;6.47;;;;;;;2.25;61.83;102421.56;5015732;27;97274;-49
2024/01/30 06:53:31;;;;;;;8.70;5.80;;;;;;;2.27;61.51;102421.91;5012709;27;96743;-49
2024/01/30 06:55:57;;;;;;;6.40;5.17;;;;;;;2.28;61.66;102420.75;5013057;27;96704;-49
2024/01/30 06:58:22;;;;;;;6.60;5.57;;;;;;;2.31;61.37;102417.16;5015874;27;96664;-50
2024/01/30 07:00:47;;;;;;;8.40;5.93;;;;;;;2.32;61.58;102423.41;5016169;27;97544;-49
2024/01/30 07:03:13;;;;;;;6.00;5.37;;;;;;;2.32;61.71;102428.88;5019346;27;97042;-49
2024/01/30 07:05:38;;;;;;;5.83;5.23;;;;;;;2.31;61.54;102425.34;5015170;27;101489;-52
2024/01/30 07:08:04;;;;;;;6.90;5.90;;;;;;;2.30;61.48;102426.56;5015497;27;97355;-49
2024/01/30 07:10:29;;;;;;;6.83;5.07;;;;;;;2.31;61.66;102424.59;5012325;27;96812;-49
2024/01/30 07:12:54;;;;;;;5.77;5.13;;;;;;;2.34;61.89;102427.28;5015330;27;96914;-49
2024/01/30 07:15:20;;;;;;;9.50;6.37;;;;;;;2.37;61.83;102431.94;5012966;27;97444;-50
2024/01/30 07:17:46;;;;;;;6.33;5.20;;;;;;;2.39;61.70;102421.38;5012420;27;98601;-50
2024/01/30 07:20:11;;;;;;;6.80;5.27;;;;;;;2.40;61.54;102420.16;5014419;27;97073;-51
2024/01/30 07:22:37;;;;;;;7.60;6.00;;;;;;;2.41;61.68;102418.22;5017542;27;97020;-50
2024/01/30 07:25:02;;;;;;;5.90;5.03;;;;;;;2.42;61.57;102417.78;5011732;27;97202;-49
2024/01/30 07:27:28;;;;;;;8.27;5.57;;;;;;;2.43;61.78;102413.09;5014175;27;98525;-49
2024/01/30 07:29:53;;;;;;;6.53;5.47;;;;;;;2.44;61.77;102409.19;5014219;27;97237;-49
2024/01/30 07:32:18;;;;;;;7.00;5.77;;;;;;;2.46;61.51;102420.47;5014088;27;97115;-49
2024/01/30 07:34:44;;;;;;;9.53;6.20;;;;;;;2.48;61.68;102418.84;5016915;27;97288;-50
2024/01/30 07:37:10;;;;;;;7.03;6.03;;;;;;;2.53;61.47;102421.09;5019097;27;107331;-50
2024/01/30 07:39:36;;;;;;;8.13;5.07;;;;;;;2.57;61.72;102417.53;5017878;27;97698;-50
2024/01/30 07:42:01;;;;;;;6.53;5.13;;;;;;;2.61;61.60;102423.72;5016085;27;96711;-50
2024/01/30 07:44:26;;;;;;;5.83;5.23;;;;;;;2.63;61.83;102422.13;5018633;27;97521;-50
2024/01/30 07:46:51;;;;;;;6.50;5.50;;;;;;;2.65;61.41;102414.25;5018990;27;103788;-50
2024/01/30 07:49:17;;;;;;;6.27;5.23;;;;;;;2.69;61.70;102419.66;5016298;27;97970;-50
2024/01/30 07:51:43;;;;;;;7.07;5.37;;;;;;;2.68;61.58;102409.94;5017072;27;96771;-50
2024/01/30 07:54:15;;;;;;;7.20;4.87;;;;;;;2.69;61.50;102411.47;5017620;27;97424;-50
2024/01/30 08:03:24;;;;;;;7.80;4.90;;;;;;;2.76;61.94;102406.66;5014386;27;96819;-50
2024/01/30 08:05:49;;;;;;;6.07;5.00;;;;;;;2.81;61.56;102394.44;5021872;27;97351;-50
2024/01/30 08:08:15;;;;;;;9.00;5.43;;;;;;;2.84;61.91;102394.38;5014549;27;97921;-50
2024/01/30 08:10:40;;;;;;;6.80;5.50;;;;;;;2.87;61.92;102387.28;5017781;27;96747;-49
2024/01/30 08:13:06;;;;;;;5.47;4.63;;;;;;;2.93;61.86;102386.38;5016350;27;96880;-50
2024/01/30 08:15:31;;;;;;;7.93;5.47;;;;;;;3.00;62.06;102388.22;5018399;27;97413;-50
2024/01/30 08:17:58;;;;;;;7.30;5.57;;;;;;;3.03;62.04;102388.13;5017387;27;103118;-50
2024/01/30 08:20:24;;;;;;;6.47;5.50;;;;;;;3.10;62.00;102384.47;5017108;27;97660;-49
2024/01/30 08:22:50;;;;;;;7.80;4.90;;;;;;;3.16;62.32;102385.53;5016680;27;96819;-50
2024/01/30 08:25:15;;;;;;;7.70;5.10;;;;;;;3.21;62.24;102385.78;5015737;27;103467;-49
2024/01/30 08:27:40;;;;;;;7.70;5.20;;;;;;;3.29;61.92;102394.63;5016567;27;105626;-50
2024/01/30 08:30:06;;;;;;;7.40;5.70;;;;;;;3.37;62.07;102397.97;5018144;27;97582;-50
2024/01/30 08:32:32;;;;;;;6.27;5.13;;;;;;;3.40;62.00;102429.97;5017653;27;97080;-50
2024/01/30 08:34:57;;;;;;;8.30;5.33;;;;;;;3.46;61.86;102398.16;5018284;27;96600;-50
2024/01/30 08:37:23;;;;;;;6.97;5.47;;;;;;;3.49;62.06;102391.88;5013020;27;99854;-50
2024/01/30 08:39:48;;;;;;;7.00;5.30;;;;;;;3.54;62.35;102397.59;5019372;27;97131;-50
2024/01/30 08:42:14;;;;;;;9.47;5.57;;;;;;;3.61;62.29;102386.50;5014834;27;97111;-50
2024/01/30 08:44:39;;;;;;;6.10;5.13;;;;;;;3.68;62.12;102386.34;5018522;27;97025;-50
2024/01/30 08:47:05;;;;;;;7.57;4.90;;;;;;;3.76;62.13;102397.88;5018546;27;97824;-50
2024/01/30 08:49:31;;;;;;;5.00;4.47;;;;;;;3.81;62.08;102394.63;5016708;27;96818;-50
2024/01/30 08:51:56;;;;;;;9.90;4.60;;;;;;;3.88;62.24;102384.28;5014977;27;96816;-50
2024/01/30 08:54:22;;;;;;;5.70;4.70;;;;;;;3.93;62.24;102391.97;5019171;27;97148;-50
2024/01/30 08:56:48;;;;;;;7.00;5.07;;;;;;;3.99;62.37;102390.25;5017083;27;98587;-50
2024/01/30 08:59:13;;;;;;;5.57;4.83;;;;;;;4.06;62.43;102401.03;5015763;27;98701;-50
2024/01/30 09:01:38;;;;;;;6.57;5.23;;;;;;;4.13;62.22;102380.16;5020619;27;97433;-50
2024/01/30 09:04:04;;;;;;;7.30;5.83;;;;;;;4.22;62.29;102383.84;5020108;27;96572;-50
2024/01/30 09:06:29;;;;;;;8.33;5.60;;;;;;;4.27;62.05;102385.28;5015840;27;98693;-50
2024/01/30 09:08:54;;;;;;;8.27;6.17;;;;;;;4.36;62.55;102386.22;5018300;27;108855;-50
2024/01/30 09:11:20;;;;;;;5.93;4.90;;;;;;;4.42;62.41;102380.97;5018504;27;96984;-50
2024/01/30 09:13:45;;;;;;;5.93;5.03;;;;;;;4.50;62.39;102387.81;5017223;27;96965;-50
2024/01/30 09:16:10;;;;;;;6.57;5.57;;;;;;;4.58;62.23;102381.69;5016641;27;97326;-50
2024/01/30 09:18:36;;;;;;;7.57;5.60;;;;;;;4.68;62.31;102388.09;5016699;27;97409;-50
2024/01/30 09:21:01;;;;;;;6.43;5.67;;;;;;;4.75;62.61;102385.19;5016863;27;97451;-50
2024/01/30 09:23:27;;;;;;;5.97;5.07;;;;;;;4.85;62.35;102386.09;5018712;27;96774;-50
2024/01/30 09:25:53;;;;;;;7.70;5.00;;;;;;;4.92;62.37;102394.91;5017175;27;96802;-50
2024/01/30 09:28:18;;;;;;;6.87;5.30;;;;;;;5.00;62.26;102390.75;5015535;27;97269;-50
2024/01/30 09:30:43;;;;;;;9.13;5.47;;;;;;;5.07;62.49;102387.81;5017209;27;96918;-50
2024/01/30 09:33:09;;;;;;;7.57;6.10;;;;;;;5.19;62.53;102391.78;5017372;27;96667;-50
2024/01/30 09:35:36;;;;;;;5.93;5.10;;;;;;;5.27;62.53;102388.41;5014730;27;96967;-50
2024/01/30 09:38:01;;;;;;;8.27;6.07;;;;;;;5.40;62.34;102393.91;5012767;27;98431;-50
2024/01/30 09:40:27;;;;;;;7.40;5.10;;;;;;;5.51;62.56;102386.09;5016902;27;97154;-50
2024/01/30 09:42:54;;;;;;;6.63;5.20;;;;;;;5.61;62.52;102392.50;5015673;27;96724;-50
2024/01/30 09:45:24;;;;;;;6.57;5.90;;;;;;;5.68;62.55;102390.28;5014604;27;97124;-50
2024/01/30 09:47:50;;;;;;;5.80;5.20;;;;;;;5.78;62.44;102393.91;5016119;27;97315;-50
2024/01/30 09:50:16;;;;;;;9.77;5.77;;;;;;;5.87;62.41;102389.28;5018118;27;97461;-52
2024/01/30 09:52:44;;;;;;;7.20;5.57;;;;;;;5.96;62.40;102388.59;5014859;27;97572;-50
2024/01/30 09:55:09;;;;;;;5.43;4.87;;;;;;;6.06;62.50;102387.50;5014629;27;97135;-50
2024/01/30 09:57:35;;;;;;;7.23;5.37;;;;;;;6.13;62.53;102388.00;5013792;27;98818;-50
2024/01/30 10:00:01;;;;;;;4.80;4.33;;;;;;;6.23;62.57;102386.91;5015819;27;97212;-50
2024/01/30 10:02:27;;;;;;;6.30;5.40;;;;;;;6.31;62.50;102385.44;5013357;27;97000;-50
2024/01/30 10:04:52;;;;;;;5.23;4.73;;;;;;;6.39;62.51;102385.97;5013462;27;98017;-50
2024/01/30 10:07:18;;;;;;;6.83;4.83;;;;;;;6.48;62.52;102382.53;5015488;27;98306;-50
2024/01/30 10:09:44;;;;;;;5.87;4.93;;;;;;;6.59;62.62;102396.69;5014270;27;97382;-50
2024/01/30 10:12:10;;;;;;;6.27;5.57;;;;;;;6.72;62.45;102378.91;5013366;27;96688;-50
2024/01/30 10:14:39;;;;;;;8.70;5.00;;;;;;;6.86;62.49;102383.16;5013834;27;98618;-49
2024/01/30 10:17:05;;;;;;;5.70;4.90;;;;;;;6.96;62.39;102387.53;5015299;27;96984;-50
2024/01/30 10:19:31;;;;;;;9.27;6.40;;;;;;;7.09;62.36;102371.69;5010579;27;97426;-50
2024/01/30 10:21:56;;;;;;;5.97;5.37;;;;;;;7.20;62.20;102374.81;5016051;27;97045;-50
2024/01/30 10:24:25;;;;;;;7.33;5.10;;;;;;;7.32;62.09;102375.94;5014643;27;97567;-50
2024/01/30 10:26:50;;;;;;;10.13;5.97;;;;;;;7.42;61.96;102372.75;5017166;27;97824;-50
2024/01/30 10:29:17;;;;;;;7.17;5.87;;;;;;;7.51;61.88;102370.03;5019149;27;96940;-50
2024/01/30 10:31:42;;;;;;;8.30;6.40;;;;;;;7.60;61.82;102369.31;5016393;27;96712;-50
2024/01/30 10:34:07;;;;;;;6.30;5.50;;;;;;;7.66;61.70;102371.00;5013664;27;106370;-50
2024/01/30 10:36:43;;;;;;;8.67;5.87;;;;;;;7.75;61.57;102365.53;5011182;27;97099;-50
2024/01/30 10:39:08;;;;;;;7.90;5.07;;;;;;;7.83;61.67;102366.78;5015103;27;97070;-50
2024/01/30 10:41:44;;;;;;;5.80;5.20;;;;;;;7.93;61.56;102364.03;5014228;27;97170;-50
2024/01/30 10:44:10;;;;;;;7.13;5.70;;;;;;;8.02;61.58;102362.09;5014396;27;97787;-50
2024/01/30 10:46:38;;;;;;;6.67;5.50;;;;;;;8.11;61.22;102364.09;5013229;27;97636;-50
2024/01/30 10:49:04;;;;;;;6.73;5.63;;;;;;;8.17;61.15;102367.78;5015315;27;97169;-50
2024/01/30 10:51:31;;;;;;;6.37;5.43;;;;;;;8.23;61.16;102371.50;5014600;27;96782;-50
2024/01/30 10:53:57;;;;;;;6.30;5.20;;;;;;;8.30;61.18;102362.91;5013870;27;97926;-50
2024/01/30 10:56:23;;;;;;;7.50;4.97;;;;;;;8.37;61.09;102363.38;5016380;27;97240;-50
2024/01/30 10:58:51;;;;;;;7.50;5.60;;;;;;;8.44;60.89;102354.81;5011982;27;97061;-50
2024/01/30 11:01:17;;;;;;;6.87;5.47;;;;;;;8.52;60.76;102350.50;5012569;27;97098;-50
2024/01/30 11:03:42;;;;;;;7.03;5.13;;;;;;;8.61;60.72;102351.72;5015012;27;96700;-49
2024/01/30 11:06:13;;;;;;;5.80;5.23;;;;;;;8.67;60.63;102349.84;5017529;27;97003;-50
2024/01/30 11:08:39;;;;;;;5.83;4.90;;;;;;;8.73;60.72;102354.28;5015601;27;97134;-50
2024/01/30 11:11:09;;;;;;;4.87;4.43;;;;;;;8.78;60.44;102356.44;5013916;27;99846;-50
2024/01/30 11:13:34;;;;;;;5.63;4.70;;;;;;;8.82;60.61;102350.78;5014477;27;98228;-50
2024/01/30 11:16:04;;;;;;;7.70;5.60;;;;;;;8.88;60.35;102348.91;5013872;27;98335;-50
2024/01/30 11:18:30;;;;;;;9.50;4.93;;;;;;;8.93;60.35;102356.56;5018409;27;96777;-50
2024/01/30 11:20:57;;;;;;;5.33;4.83;;;;;;;8.98;60.39;102356.72;5016713;27;97373;-50
2024/01/30 11:23:23;;;;;;;5.50;4.93;;;;;;;9.02;60.31;102339.97;5014410;27;96676;-50
2024/01/30 11:25:48;;;;;;;8.63;5.33;;;;;;;9.06;59.97;102354.38;5012258;27;97516;-50
2024/01/30 11:28:16;;;;;;;7.13;5.70;;;;;;;9.10;59.95;102343.97;5014011;27;96933;-50
2024/01/30 11:30:41;;;;;;;8.63;5.67;;;;;;;9.14;60.04;102350.84;5015733;27;96734;-50